createdAt,value
2022-08-05T00:00:50.261Z,62.20
2022-08-05T00:03:17.551Z,62.40
2022-08-05T00:06:05.365Z,62.60
2022-08-05T00:08:35.725Z,62.70
2022-08-05T00:11:07.491Z,62.70
2022-08-05T00:13:52.859Z,63.10
2022-08-05T00:16:35.506Z,63.00
2022-08-05T00:19:04.766Z,63.10
2022-08-05T00:21:35.657Z,63.20
2022-08-05T00:24:10.248Z,63.60
2022-08-05T00:26:39.397Z,63.60
2022-08-05T00:29:18.945Z,63.70
2022-08-05T00:32:11.078Z,63.80
2022-08-05T00:34:54.967Z,63.80
2022-08-05T00:37:24.517Z,64.00
2022-08-05T00:39:57.884Z,64.30
2022-08-05T00:42:35.360Z,64.40
2022-08-05T00:45:08.546Z,64.60
2022-08-05T00:47:56.570Z,64.60
2022-08-05T00:50:25.964Z,64.50
2022-08-05T00:54:00.547Z,64.60
2022-08-05T00:56:22.972Z,64.80
2022-08-05T00:58:51.684Z,64.80
2022-08-05T01:01:42.019Z,64.80
2022-08-05T01:04:13.686Z,64.90
2022-08-05T01:06:41.659Z,64.90
2022-08-05T01:09:14.016Z,64.90
2022-08-05T01:11:43.996Z,65.20
2022-08-05T01:14:28.370Z,65.40
2022-08-05T01:17:02.028Z,65.70
2022-08-05T01:19:56.373Z,65.70
2022-08-05T01:22:47.514Z,65.80
2022-08-05T01:25:40.118Z,65.90
2022-08-05T01:28:30.153Z,65.80
2022-08-05T01:31:12.219Z,66.10
2022-08-05T01:34:10.261Z,66.20
2022-08-05T01:36:54.882Z,66.50
2022-08-05T01:39:36.150Z,66.20
2022-08-05T01:42:15.276Z,66.20
2022-08-05T01:44:45.660Z,66.50
2022-08-05T01:47:22.847Z,66.50
2022-08-05T01:50:01.763Z,66.70
2022-08-05T01:52:32.448Z,66.60
2022-08-05T01:55:04.534Z,66.60
2022-08-05T01:58:10.983Z,66.90
2022-08-05T02:00:30.653Z,66.80
2022-08-05T02:03:34.086Z,66.90
2022-08-05T02:06:24.042Z,67.10
2022-08-05T02:08:57.912Z,67.10
2022-08-05T02:11:33.976Z,67.10
2022-08-05T02:14:21.299Z,67.20
2022-08-05T02:16:54.873Z,67.60
2022-08-05T02:19:28.027Z,67.40
2022-08-05T02:22:25.503Z,67.50
2022-08-05T02:25:00.191Z,67.60
2022-08-05T02:27:30.116Z,67.70
2022-08-05T02:30:19.538Z,67.70
2022-08-05T02:32:51.296Z,67.70
2022-08-05T02:35:28.079Z,67.90
2022-08-05T02:38:02.381Z,67.60
2022-08-05T02:40:30.872Z,67.70
2022-08-05T02:42:59.897Z,67.70
2022-08-05T02:45:28.711Z,67.70
2022-08-05T02:48:17.462Z,67.90
2022-08-05T02:50:47.463Z,67.80
2022-08-05T02:53:18.897Z,67.80
2022-08-05T02:55:54.796Z,67.90
2022-08-05T02:58:27.416Z,68.10
2022-08-05T03:00:57.006Z,68.10
2022-08-05T03:03:24.858Z,68.20
2022-08-05T03:06:55.446Z,68.10
2022-08-05T03:08:42.425Z,68.10
2022-08-05T03:11:56.127Z,68.00
2022-08-05T03:14:13.616Z,68.40
2022-08-05T03:16:40.927Z,68.20
2022-08-05T03:19:16.849Z,68.10
2022-08-05T03:21:48.702Z,68.50
2022-08-05T03:24:27.582Z,68.30
2022-08-05T03:26:58.294Z,68.20
2022-08-05T03:29:45.520Z,68.40
2022-08-05T03:32:14.386Z,68.30
2022-08-05T03:34:51.197Z,68.40
2022-08-05T03:37:19.804Z,68.30
2022-08-05T03:40:01.479Z,68.40
2022-08-05T03:42:31.973Z,68.30
2022-08-05T03:44:59.768Z,68.20
2022-08-05T03:47:30.423Z,68.80
2022-08-05T03:50:02.528Z,68.50
2022-08-05T03:52:48.929Z,68.50
2022-08-05T03:56:05.685Z,68.50
2022-08-05T03:58:21.935Z,68.60
2022-08-05T04:01:00.027Z,68.70
2022-08-05T04:03:29.456Z,68.70
2022-08-05T04:05:59.237Z,68.70
2022-08-05T04:08:34.982Z,68.80
2022-08-05T04:11:08.621Z,68.80
2022-08-05T04:13:50.525Z,68.80
2022-08-05T04:16:24.266Z,69.00
2022-08-05T04:18:53.892Z,68.90
2022-08-05T04:22:08.641Z,68.90
2022-08-05T04:24:18.921Z,68.90
2022-08-05T04:26:50.097Z,68.90
2022-08-05T04:29:17.256Z,69.00
2022-08-05T04:31:44.471Z,68.80
2022-08-05T04:34:31.508Z,68.90
2022-08-05T04:37:00.863Z,69.10
2022-08-05T04:39:31.334Z,69.20
2022-08-05T04:41:59.317Z,69.30
2022-08-05T04:44:29.944Z,69.30
2022-08-05T04:47:08.766Z,69.40
2022-08-05T04:50:01.588Z,69.30
2022-08-05T04:52:27.762Z,69.20
2022-08-05T04:54:57.169Z,69.20
2022-08-05T04:57:29.271Z,69.20
2022-08-05T04:59:58.552Z,69.30
2022-08-05T05:02:37.196Z,69.20
2022-08-05T05:05:16.780Z,69.30
2022-08-05T05:08:01.169Z,69.40
2022-08-05T05:10:33.416Z,69.20
2022-08-05T05:13:04.032Z,69.20
2022-08-05T05:15:57.365Z,69.30
2022-08-05T05:18:31.224Z,69.20
2022-08-05T05:21:02.059Z,69.40
2022-08-05T05:23:39.439Z,69.50
2022-08-05T05:26:17.441Z,69.50
2022-08-05T05:28:45.031Z,69.50
2022-08-05T05:31:12.828Z,69.50
2022-08-05T05:33:57.038Z,69.50
2022-08-05T05:36:28.546Z,69.60
2022-08-05T05:38:57.326Z,69.80
2022-08-05T05:41:24.775Z,69.70
2022-08-05T05:43:58.272Z,69.60
2022-08-05T05:46:27.474Z,69.70
2022-08-05T05:48:54.554Z,69.80
2022-08-05T05:51:25.976Z,70.00
2022-08-05T05:53:58.962Z,69.90
2022-08-05T05:56:32.486Z,69.90
2022-08-05T05:59:05.309Z,69.90
2022-08-05T06:01:37.092Z,69.80
2022-08-05T06:04:12.046Z,69.90
2022-08-05T06:06:47.767Z,70.20
2022-08-05T06:09:24.693Z,70.30
2022-08-05T06:11:59.404Z,70.10
2022-08-05T06:14:29.014Z,70.30
2022-08-05T06:16:56.923Z,70.10
2022-08-05T06:19:34.176Z,70.20
2022-08-05T06:22:06.484Z,70.40
2022-08-05T06:24:42.216Z,70.40
2022-08-05T06:28:11.135Z,70.50
2022-08-05T06:30:16.821Z,70.40
2022-08-05T06:32:47.134Z,70.50
2022-08-05T06:35:15.541Z,70.40
2022-08-05T06:37:57.686Z,70.50
2022-08-05T06:40:27.683Z,70.50
2022-08-05T06:42:55.293Z,70.60
2022-08-05T06:45:44.798Z,70.70
2022-08-05T06:48:36.685Z,70.80
2022-08-05T06:50:57.648Z,70.70
2022-08-05T06:53:28.310Z,70.60
2022-08-05T06:56:00.342Z,70.50
2022-08-05T06:58:34.858Z,70.60
2022-08-05T07:01:06.159Z,70.10
2022-08-05T07:03:34.401Z,70.20
2022-08-05T07:06:06.153Z,69.90
2022-08-05T07:08:47.467Z,69.80
2022-08-05T07:11:22.122Z,69.70
2022-08-05T07:14:15.588Z,69.80
2022-08-05T07:17:59.875Z,69.80
2022-08-05T07:22:29.171Z,70.30
2022-08-05T07:25:23.450Z,70.60
2022-08-05T07:27:58.123Z,70.90
2022-08-05T07:30:38.922Z,71.10
2022-08-05T07:33:10.572Z,71.30
2022-08-05T07:36:04.593Z,71.90
2022-08-05T07:38:42.588Z,71.40
2022-08-05T07:42:13.453Z,71.50
2022-08-05T07:44:18.701Z,71.60
2022-08-05T07:46:48.598Z,71.80
2022-08-05T07:49:18.758Z,72.60
2022-08-05T07:51:53.479Z,71.60
2022-08-05T07:54:30.630Z,71.70
2022-08-05T07:57:16.905Z,72.50
2022-08-05T07:59:48.790Z,72.40
2022-08-05T08:02:17.900Z,72.50
2022-08-05T08:04:48.420Z,72.60
2022-08-05T08:07:23.048Z,72.60
2022-08-05T08:09:52.521Z,72.20
2022-08-05T08:12:35.611Z,66.50
2022-08-05T08:15:09.665Z,61.30
2022-08-05T08:17:46.064Z,61.30
2022-08-05T08:20:44.542Z,60.60
2022-08-05T08:23:03.848Z,60.80
2022-08-05T08:25:59.206Z,57.50
2022-08-05T08:28:36.716Z,56.40
2022-08-05T08:31:07.746Z,55.60
2022-08-05T08:33:37.638Z,55.00
2022-08-05T08:36:39.262Z,55.70
2022-08-05T08:38:55.560Z,50.70
2022-08-05T08:41:26.373Z,54.60
2022-08-05T08:45:23.884Z,53.80
2022-08-05T08:47:04.111Z,52.30
2022-08-05T08:50:05.937Z,51.00
2022-08-05T08:52:54.162Z,51.60
2022-08-05T08:55:32.121Z,53.00
2022-08-05T08:58:12.981Z,52.70
2022-08-05T09:00:42.499Z,52.30
2022-08-05T09:03:11.537Z,51.90
2022-08-05T09:06:07.516Z,51.70
2022-08-05T09:08:30.198Z,50.90
2022-08-05T09:10:58.494Z,50.70
2022-08-05T09:13:31.663Z,51.10
2022-08-05T09:16:14.640Z,50.60
2022-08-05T09:18:44.900Z,51.60
2022-08-05T09:22:17.532Z,49.80
2022-08-05T09:24:10.173Z,48.50
2022-08-05T09:26:37.498Z,48.10
2022-08-05T09:29:08.756Z,49.30
2022-08-05T09:32:39.896Z,48.40
2022-08-05T09:34:23.561Z,48.50
2022-08-05T09:36:54.366Z,49.40
2022-08-05T09:39:27.758Z,50.80
2022-08-05T09:42:11.320Z,52.00
2022-08-05T09:44:44.718Z,53.50
2022-08-05T09:47:23.675Z,53.80
2022-08-05T09:50:02.421Z,54.00
2022-08-05T09:52:33.661Z,54.20
2022-08-05T09:55:57.572Z,54.70
2022-08-05T09:57:59.874Z,55.00
2022-08-05T10:00:27.829Z,55.20
2022-08-05T10:02:59.009Z,55.50
2022-08-05T10:05:32.919Z,55.70
2022-08-05T10:08:35.703Z,56.10
2022-08-05T10:10:54.253Z,56.30
2022-08-05T10:13:45.754Z,53.30
2022-08-05T10:16:32.323Z,48.20
2022-08-05T10:19:09.399Z,46.20
2022-08-05T10:21:40.287Z,47.00
2022-08-05T10:24:15.131Z,45.80
2022-08-05T10:26:48.983Z,48.60
2022-08-05T10:29:24.205Z,51.50
2022-08-05T10:32:53.047Z,53.10
2022-08-05T10:35:01.131Z,54.10
2022-08-05T10:37:37.155Z,54.90
2022-08-05T10:40:45.076Z,55.30
2022-08-05T10:43:23.258Z,56.80
2022-08-05T10:46:06.080Z,56.30
2022-08-05T10:48:56.656Z,55.50
2022-08-05T10:51:59.914Z,56.50
2022-08-05T10:55:04.772Z,55.50
2022-08-05T10:57:33.814Z,56.20
2022-08-05T11:00:20.446Z,55.40
2022-08-05T11:03:23.683Z,55.70
2022-08-05T11:06:15.473Z,57.10
2022-08-05T11:09:32.124Z,56.20
2022-08-05T11:12:42.115Z,57.10
2022-08-05T11:15:21.309Z,56.40
2022-08-05T11:18:00.386Z,55.60
2022-08-05T11:20:41.651Z,55.30
2022-08-05T11:24:02.338Z,55.20
2022-08-05T11:26:31.967Z,56.00
2022-08-05T11:29:11.692Z,55.40
2022-08-05T11:31:58.871Z,55.20
2022-08-05T11:34:40.040Z,51.60
2022-08-05T11:38:28.778Z,47.30
2022-08-05T11:41:35.021Z,44.20
2022-08-05T11:44:04.623Z,47.40
2022-08-05T11:46:58.287Z,45.80
2022-08-05T11:49:37.768Z,46.10
2022-08-05T11:52:11.224Z,46.40
2022-08-05T11:54:41.407Z,44.00
2022-08-05T11:57:24.828Z,42.50
2022-08-05T11:59:53.837Z,41.00
2022-08-05T12:02:32.025Z,40.40
2022-08-05T12:05:07.662Z,39.60
2022-08-05T12:08:08.337Z,40.30
2022-08-05T12:10:43.567Z,40.00
2022-08-05T12:13:16.766Z,40.70
2022-08-05T12:15:50.233Z,40.20
2022-08-05T12:18:18.902Z,39.00
2022-08-05T12:20:47.753Z,38.40
2022-08-05T12:23:14.795Z,38.20
2022-08-05T12:25:56.930Z,38.20
2022-08-05T12:28:37.891Z,37.30
2022-08-05T12:31:05.814Z,37.20
2022-08-05T12:33:36.545Z,38.00
2022-08-05T12:36:08.600Z,37.20
2022-08-05T12:38:41.118Z,36.90
2022-08-05T12:41:13.450Z,37.20
2022-08-05T12:43:58.845Z,38.10
2022-08-05T12:46:29.211Z,37.50
2022-08-05T12:49:13.442Z,38.40
2022-08-05T12:52:12.081Z,37.00
2022-08-05T12:54:51.274Z,35.60
2022-08-05T12:57:19.661Z,37.00
2022-08-05T13:01:56.932Z,36.70
2022-08-05T13:02:42.513Z,36.30
2022-08-05T13:05:15.079Z,37.10
2022-08-05T13:08:00.058Z,36.10
2022-08-05T13:10:31.622Z,36.20
2022-08-05T13:12:58.866Z,36.40
2022-08-05T13:15:41.096Z,35.70
2022-08-05T13:18:10.890Z,35.00
2022-08-05T13:20:46.261Z,35.90
2022-08-05T13:23:13.544Z,37.60
2022-08-05T13:25:58.796Z,39.00
2022-08-05T13:28:29.085Z,39.90
2022-08-05T13:30:59.465Z,40.30
2022-08-05T13:34:21.797Z,40.30
2022-08-05T13:36:17.525Z,40.50
2022-08-05T13:38:44.568Z,41.00
2022-08-05T13:41:19.122Z,41.60
2022-08-05T13:43:54.797Z,42.20
2022-08-05T13:46:37.907Z,43.20
2022-08-05T13:49:11.870Z,44.30
2022-08-05T13:51:46.286Z,45.10
2022-08-05T13:54:15.950Z,44.80
2022-08-05T13:56:45.237Z,44.30
2022-08-05T13:59:27.466Z,44.10
2022-08-05T14:02:00.383Z,43.40
2022-08-05T14:04:55.466Z,43.40
2022-08-05T14:07:59.919Z,42.70
2022-08-05T14:10:27.996Z,43.00
2022-08-05T14:12:57.436Z,43.10
2022-08-05T14:16:08.684Z,43.30
2022-08-05T14:18:17.843Z,43.80
2022-08-05T14:20:48.026Z,44.20
2022-08-05T14:23:23.418Z,44.30
2022-08-05T14:25:58.230Z,44.50
2022-08-05T14:28:28.268Z,44.90
2022-08-05T14:30:56.653Z,45.00
2022-08-05T14:33:24.286Z,45.30
2022-08-05T14:35:53.986Z,45.80
2022-08-05T14:38:33.212Z,46.10
2022-08-05T14:41:07.736Z,46.20
2022-08-05T14:43:53.916Z,46.40
2022-08-05T14:46:29.150Z,46.60
2022-08-05T14:48:59.565Z,46.60
2022-08-05T14:51:31.224Z,46.70
2022-08-05T14:54:26.656Z,46.80
2022-08-05T14:56:48.688Z,46.90
2022-08-05T14:59:18.452Z,47.10
2022-08-05T15:01:49.781Z,47.30
2022-08-05T15:04:20.596Z,47.50
2022-08-05T15:06:50.490Z,47.80
2022-08-05T15:09:52.562Z,48.10
2022-08-05T15:12:16.350Z,48.40
2022-08-05T15:14:49.994Z,48.70
2022-08-05T15:17:45.738Z,48.80
2022-08-05T15:20:09.752Z,49.00
2022-08-05T15:22:44.735Z,49.10
2022-08-05T15:25:13.978Z,49.40
2022-08-05T15:27:42.875Z,49.50
2022-08-05T15:30:18.933Z,49.60
2022-08-05T15:32:47.212Z,49.70
2022-08-05T15:35:14.734Z,49.80
2022-08-05T15:38:32.667Z,50.00
2022-08-05T15:40:59.389Z,50.30
2022-08-05T15:43:20.644Z,50.60
2022-08-05T15:46:00.131Z,50.80
2022-08-05T15:48:29.952Z,51.00
2022-08-05T15:50:57.481Z,51.10
2022-08-05T15:53:26.443Z,51.50
2022-08-05T15:56:03.704Z,51.90
2022-08-05T15:58:36.864Z,52.10
2022-08-05T16:01:17.407Z,52.90
2022-08-05T16:03:50.544Z,53.10
2022-08-05T16:06:20.246Z,53.70
2022-08-05T16:08:50.847Z,54.20
2022-08-05T16:11:18.650Z,54.30
2022-08-05T16:13:48.554Z,54.50
2022-08-05T16:16:21.304Z,54.80
2022-08-05T16:18:53.105Z,54.90
2022-08-05T16:22:00.618Z,54.80
2022-08-05T16:24:12.861Z,54.70
2022-08-05T16:26:56.587Z,54.80
2022-08-05T16:29:24.878Z,54.80
2022-08-05T16:31:56.715Z,55.00
2022-08-05T16:34:26.463Z,55.10
2022-08-05T16:36:54.314Z,55.40
2022-08-05T16:39:22.031Z,55.50
2022-08-05T16:42:14.140Z,55.60
2022-08-05T16:44:44.239Z,55.60
2022-08-05T16:47:28.992Z,55.70
2022-08-05T16:49:58.964Z,55.90
2022-08-05T16:52:32.673Z,56.20
2022-08-05T16:55:00.946Z,56.60
2022-08-05T16:57:42.969Z,56.90
2022-08-05T17:00:26.251Z,57.20
2022-08-05T17:03:09.334Z,57.70
2022-08-05T17:05:53.362Z,57.60
2022-08-05T17:08:36.001Z,57.70
2022-08-05T17:11:12.679Z,57.80
2022-08-05T17:13:45.572Z,57.70
2022-08-05T17:16:32.822Z,57.80
2022-08-05T17:19:00.680Z,57.70
2022-08-05T17:21:36.322Z,57.30
2022-08-05T17:24:18.702Z,56.80
2022-08-05T17:26:57.219Z,57.20
2022-08-05T17:29:33.547Z,56.80
2022-08-05T17:32:08.434Z,56.70
2022-08-05T17:34:38.980Z,56.60
2022-08-05T17:37:16.934Z,56.70
2022-08-05T17:39:55.830Z,56.60
2022-08-05T17:42:28.346Z,56.60
2022-08-05T17:44:56.962Z,56.80
2022-08-05T17:47:24.044Z,57.00
2022-08-05T17:50:04.281Z,56.80
2022-08-05T17:52:52.763Z,56.90
2022-08-05T17:55:22.710Z,56.90
2022-08-05T17:57:54.769Z,57.10
2022-08-05T18:00:22.178Z,57.50
2022-08-05T18:02:56.627Z,57.20
2022-08-05T18:05:28.137Z,57.30
2022-08-05T18:08:02.500Z,57.20
2022-08-05T18:10:32.294Z,57.10
2022-08-05T18:13:02.028Z,57.30
2022-08-05T18:15:35.152Z,57.20
2022-08-05T18:18:11.170Z,57.20
2022-08-05T18:20:38.848Z,57.50
2022-08-05T18:23:11.907Z,57.40
2022-08-05T18:25:45.403Z,57.70
2022-08-05T18:28:16.088Z,57.90
2022-08-05T18:30:50.857Z,57.90
2022-08-05T18:33:22.564Z,57.90
2022-08-05T18:36:00.774Z,57.80
2022-08-05T18:38:35.934Z,57.60
2022-08-05T18:41:56.462Z,57.80
2022-08-05T18:43:52.833Z,57.90
2022-08-05T18:46:20.677Z,57.90
2022-08-05T18:48:52.248Z,58.00
2022-08-05T18:52:06.811Z,58.00
2022-08-05T18:54:27.612Z,57.90
2022-08-05T18:56:58.258Z,57.90
2022-08-05T18:59:43.523Z,58.00
2022-08-05T19:02:28.050Z,58.00
2022-08-05T19:05:02.656Z,57.90
2022-08-05T19:07:48.111Z,58.00
2022-08-05T19:10:26.661Z,58.20
2022-08-05T19:12:56.746Z,58.20
2022-08-05T19:15:57.626Z,58.20
2022-08-05T19:18:13.476Z,58.30
2022-08-05T19:20:48.987Z,58.30
2022-08-05T19:23:22.657Z,58.40
2022-08-05T19:26:03.225Z,58.30
2022-08-05T19:28:32.696Z,58.40
2022-08-05T19:31:00.899Z,58.50
2022-08-05T19:33:36.456Z,58.50
2022-08-05T19:36:07.251Z,58.60
2022-08-05T19:38:36.802Z,58.60
2022-08-05T19:41:08.981Z,58.60
2022-08-05T19:44:06.284Z,58.60
2022-08-05T19:46:30.948Z,58.80
2022-08-05T19:49:03.524Z,58.90
2022-08-05T19:52:08.294Z,58.90
2022-08-05T19:54:31.557Z,58.90
2022-08-05T19:57:09.660Z,58.90
2022-08-05T19:59:56.225Z,59.10
2022-08-05T20:02:27.710Z,59.10
2022-08-05T20:04:58.726Z,59.10
2022-08-05T20:07:46.689Z,59.30
2022-08-05T20:10:16.113Z,59.30
2022-08-05T20:12:46.270Z,59.30
2022-08-05T20:15:23.268Z,59.40
2022-08-05T20:18:10.368Z,59.40
2022-08-05T20:20:56.799Z,59.40
2022-08-05T20:23:39.652Z,59.20
2022-08-05T20:26:16.536Z,59.40
2022-08-05T20:28:50.823Z,59.40
2022-08-05T20:31:21.628Z,59.70
2022-08-05T20:33:55.780Z,59.50
2022-08-05T20:36:24.241Z,59.70
2022-08-05T20:38:53.703Z,59.60
2022-08-05T20:41:27.309Z,59.60
2022-08-05T20:44:17.577Z,59.60
2022-08-05T20:46:48.161Z,59.50
2022-08-05T20:49:18.404Z,59.60
2022-08-05T20:51:53.493Z,59.70
2022-08-05T20:54:21.098Z,59.60
2022-08-05T20:56:48.866Z,59.70
2022-08-05T20:59:26.218Z,59.70
2022-08-05T21:01:57.204Z,59.60
2022-08-05T21:04:27.092Z,59.70
2022-08-05T21:06:54.981Z,59.70
2022-08-05T21:09:23.132Z,59.70
2022-08-05T21:12:10.655Z,59.80
2022-08-05T21:14:38.672Z,59.80
2022-08-05T21:17:06.343Z,59.70
2022-08-05T21:19:46.466Z,59.70
2022-08-05T21:22:18.355Z,59.70
2022-08-05T21:24:48.976Z,59.70
2022-08-05T21:27:25.327Z,59.80
2022-08-05T21:29:58.227Z,59.70
2022-08-05T21:32:29.184Z,59.80
2022-08-05T21:35:08.958Z,59.80
2022-08-05T21:37:53.129Z,59.70
2022-08-05T21:40:24.571Z,59.70
2022-08-05T21:42:52.989Z,59.70
2022-08-05T21:45:24.952Z,59.80
2022-08-05T21:48:11.043Z,59.90
2022-08-05T21:50:42.050Z,59.90
2022-08-05T21:53:20.296Z,59.90
2022-08-05T21:56:05.667Z,59.80
2022-08-05T21:58:34.482Z,59.90
2022-08-05T22:01:05.740Z,59.90
2022-08-05T22:03:52.601Z,60.00
2022-08-05T22:06:23.075Z,60.10
2022-08-05T22:09:02.119Z,60.10
2022-08-05T22:11:41.526Z,60.10
2022-08-05T22:14:33.201Z,60.20
2022-08-05T22:17:03.894Z,60.30
2022-08-05T22:20:01.265Z,60.20
2022-08-05T22:22:28.220Z,60.20
2022-08-05T22:25:27.816Z,60.80
2022-08-05T22:28:11.754Z,60.30
2022-08-05T22:30:55.770Z,60.30
2022-08-05T22:33:57.134Z,60.40
2022-08-05T22:36:14.569Z,60.30
2022-08-05T22:38:43.854Z,60.40
2022-08-05T22:41:16.141Z,60.50
2022-08-05T22:44:03.602Z,60.70
2022-08-05T22:46:31.419Z,60.70
2022-08-05T22:48:59.761Z,60.80
2022-08-05T22:52:06.607Z,60.70
2022-08-05T22:54:14.401Z,60.80
2022-08-05T22:56:41.498Z,60.80
2022-08-05T22:59:43.693Z,60.90
2022-08-05T23:02:05.625Z,61.00
2022-08-05T23:04:35.193Z,61.10
2022-08-05T23:07:03.133Z,61.20
2022-08-05T23:09:57.307Z,61.10
2022-08-05T23:12:20.234Z,61.20
2022-08-05T23:14:51.223Z,61.30
2022-08-05T23:17:24.239Z,61.50
2022-08-05T23:20:02.420Z,61.50
2022-08-05T23:22:30.736Z,61.50
2022-08-05T23:24:58.251Z,61.60
2022-08-05T23:27:28.935Z,61.60
2022-08-05T23:30:10.858Z,61.60
2022-08-05T23:32:38.093Z,61.70
2022-08-05T23:35:12.753Z,62.00
2022-08-05T23:37:39.870Z,61.90
2022-08-05T23:40:09.591Z,61.70
2022-08-05T23:42:38.943Z,61.70
2022-08-05T23:45:13.988Z,61.70
2022-08-05T23:47:48.400Z,61.90
2022-08-05T23:50:20.256Z,62.10
2022-08-05T23:52:50.135Z,62.20
2022-08-05T23:55:19.189Z,62.30
2022-08-05T23:57:51.071Z,62.40
